CheckWX is a tool to help pilots better visualize weather data.  It is not intended as a substitute for an official pre-flight weather briefing.

16:57:23 UTC

SBPL TAF
Senador Nilo Coelho Airport
Petrolina, Brazil
TAF SBPL 181000Z 1812/1824 17015KT 9999 BKN020 TN25/1812Z TX29/1817Z PROB30 TEMPO 1812/1815 3000 RA BKN012 FEW025TCU BECMG 1818/1820 15015KT SCT 025 BECMG 1821/1823 FEW030 RMK PEN

Jun-18@
12:00 UTC

Jun-18 @ 12:00 UTC

Jun-18@
18:00 UTC

Jun-18 @ 18:00 UTC

TAF SBPL 181000Z 1812/1824 17015KT 9999 BKN020 TN25/1812Z TX29/1817Z
Wind
  • 170° at 15 KTS
Cloud Levels
  • Broken at 2,000' AGL

Jun-18@
12:00 UTC

Jun-18 @ 12:00 UTC

Jun-18@
15:00 UTC

Jun-18 @ 15:00 UTC

PROB30 TEMPO 1812/1815 3000 RA BKN012 FEW025TCU

Expired

Conditions
Rain
Cloud Levels
  • Broken at 1,200' AGL
  • Few at 2,500' AGL

Jun-18@
18:00 UTC

Jun-18 @ 18:00 UTC

Jun-18@
21:00 UTC

Jun-18 @ 21:00 UTC

BECMG 1818/1820 15015KT SCT 025

Becoming

Becoming Conditions expected by Tue, Jun 18, 2019 @ 20:00 UTC

Wind
  • 150° at 15 KTS
Cloud Levels
  • Scattered at 2,500' AGL

Jun-18@
21:00 UTC

Jun-18 @ 21:00 UTC

Jun-19@
00:00 UTC

Jun-19 @ 00:00 UTC

BECMG 1821/1823 FEW030 RMK PEN

Becoming

Becoming Conditions expected by Tue, Jun 18, 2019 @ 23:00 UTC

Wind
  • 150° at 15 KTS
Cloud Levels
  • Few at 3,000' AGL